Time;durP1;ratioP1;P1;durP2;ratioP2;P2;SDS_P1;SDS_P2;PMS_P1;PMS_P2;Temp;Humidity;BMP_temperature;BMP_pressure;BME280_temperature;BME280_humidity;BME280_pressure;Samples;Min_cycle;Max_cycle;Signal;HPM_P1;HPM_P2
2022/05/03 00:02:11;;;;;;;32.30;12.18;;;;;;;;;;6063172;23;20067;-61
2022/05/03 00:04:56;;;;;;;30.30;13.25;;;;;;;;;;6062823;23;20034;-55
2022/05/03 00:07:42;;;;;;;40.55;14.27;;;;;;;;;;6062336;23;20034;-50
2022/05/03 00:10:08;;;;;;;28.73;12.63;;;;;;;;;;6062829;23;20062;-49
2022/05/03 00:12:45;;;;;;;32.22;13.30;;;;;;;;;;6062080;23;20603;-50
2022/05/03 00:15:11;;;;;;;27.05;12.57;;;;;;;;;;6062478;23;20097;-51
2022/05/03 00:17:40;;;;;;;38.47;12.40;;;;;;;;;;6062239;23;20062;-49
2022/05/03 00:20:14;;;;;;;33.00;12.65;;;;;;;;;;6062032;23;20262;-49
2022/05/03 00:22:41;;;;;;;28.42;12.45;;;;;;;;;;6063162;23;20054;-47
2022/05/03 00:25:08;;;;;;;31.63;13.02;;;;;;;;;;6062898;23;20303;-46
2022/05/03 00:27:54;;;;;;;30.10;13.30;;;;;;;;;;6067096;23;20094;-60
2022/05/03 00:30:28;;;;;;;37.17;13.32;;;;;;;;;;6090465;23;20030;-61
2022/05/03 00:33:02;;;;;;;28.48;11.27;;;;;;;;;;6066847;23;20058;-61
2022/05/03 00:35:28;;;;;;;20.48;9.13;;;;;;;;;;6092151;23;20057;-60
2022/05/03 00:37:55;;;;;;;21.77;9.70;;;;;;;;;;6090693;23;20023;-61
2022/05/03 00:40:28;;;;;;;19.88;7.72;;;;;;;;;;6090524;23;20137;-61
2022/05/03 00:43:13;;;;;;;16.20;7.78;;;;;;;;;;6090951;23;20061;-46
2022/05/03 00:46:02;;;;;;;13.63;5.15;;;;;;;;;;6091870;23;20054;-46
2022/05/03 00:48:28;;;;;;;12.00;4.93;;;;;;;;;;6089976;23;20022;-45
2022/05/03 00:51:21;;;;;;;12.82;4.72;;;;;;;;;;6090839;23;20054;-45
2022/05/03 00:54:12;;;;;;;8.95;4.25;;;;;;;;;;6091187;23;20066;-46
2022/05/03 00:57:00;;;;;;;7.88;2.92;;;;;;;;;;6090933;23;20026;-49
2022/05/03 01:00:06;;;;;;;7.65;2.90;;;;;;;;;;6089702;23;20073;-47
2022/05/03 01:02:40;;;;;;;9.52;3.58;;;;;;;;;;5946176;24;20059;-51
2022/05/03 01:05:09;;;;;;;5.32;2.35;;;;;;;;;;5946316;24;20064;-66
2022/05/03 01:07:42;;;;;;;5.53;2.63;;;;;;;;;;6024678;23;20034;-66
2022/05/03 01:10:31;;;;;;;2.92;1.83;;;;;;;;;;6091006;23;20109;-66
2022/05/03 01:13:04;;;;;;;5.00;2.13;;;;;;;;;;6090683;23;20064;-66
2022/05/03 01:15:38;;;;;;;4.38;1.80;;;;;;;;;;6089689;23;20062;-66
2022/05/03 01:18:05;;;;;;;3.13;1.40;;;;;;;;;;6090522;23;20030;-66
2022/05/03 01:20:41;;;;;;;2.78;1.42;;;;;;;;;;6090225;23;20397;-50
2022/05/03 01:23:21;;;;;;;1.10;0.95;;;;;;;;;;6091376;23;20058;-48
2022/05/03 01:25:52;;;;;;;2.08;1.17;;;;;;;;;;6090542;23;20029;-48
2022/05/03 01:28:51;;;;;;;5.65;1.20;;;;;;;;;;6090382;23;20062;-49
2022/05/03 01:31:24;;;;;;;;;;;;;;;;;;6091727;23;20065;-51
2022/05/03 01:34:00;;;;;;;1.20;0.80;;;;;;;;;;6089602;23;19917;-48
2022/05/03 01:36:49;;;;;;;2.70;1.00;;;;;;;;;;6090634;23;20547;-51
2022/05/03 01:39:41;;;;;;;3.25;1.02;;;;;;;;;;6030564;23;20097;-47
2022/05/03 01:42:26;;;;;;;0.32;0.32;;;;;;;;;;6093448;23;20232;-50
2022/05/03 01:45:04;;;;;;;2.45;0.70;;;;;;;;;;6093172;23;20077;-45
2022/05/03 01:47:56;;;;;;;2.30;0.80;;;;;;;;;;6091519;23;20069;-46
2022/05/03 01:50:47;;;;;;;1.52;0.60;;;;;;;;;;6092563;23;20436;-45
2022/05/03 01:53:16;;;;;;;0.70;0.57;;;;;;;;;;6092072;23;20033;-45
2022/05/03 01:55:48;;;;;;;1.65;0.65;;;;;;;;;;6092555;23;20065;-45
2022/05/03 01:58:18;;;;;;;0.75;0.43;;;;;;;;;;6091966;23;20068;-54
2022/05/03 02:00:49;;;;;;;2.85;0.60;;;;;;;;;;6093091;23;20022;-55
2022/05/03 02:03:25;;;;;;;;;;;;;;;;;;6092928;23;20058;-47
2022/05/03 02:06:01;;;;;;;3.40;0.80;;;;;;;;;;6092747;23;19917;-47
2022/05/03 02:08:56;;;;;;;0.60;0.40;;;;;;;;;;6092299;23;20046;-46
2022/05/03 02:11:41;;;;;;;0.82;0.40;;;;;;;;;;6092794;23;20058;-49
2022/05/03 02:14:45;;;;;;;0.65;0.43;;;;;;;;;;6092011;23;20061;-45
2022/05/03 02:17:30;;;;;;;1.45;0.70;;;;;;;;;;6091737;23;20058;-45
2022/05/03 02:20:27;;;;;;;0.88;0.63;;;;;;;;;;6092497;23;20037;-54
2022/05/03 02:23:10;;;;;;;3.80;0.73;;;;;;;;;;6092131;23;20062;-66
2022/05/03 02:26:00;;;;;;;3.80;0.60;;;;;;;;;;6090903;23;20061;-68
2022/05/03 02:28:44;;;;;;;1.15;0.80;;;;;;;;;;6092049;23;20030;-68
2022/05/03 02:31:26;;;;;;;0.70;0.55;;;;;;;;;;6092658;23;20058;-68
2022/05/03 02:34:00;;;;;;;0.52;0.50;;;;;;;;;;6092293;23;20062;-68
2022/05/03 02:36:41;;;;;;;1.38;0.60;;;;;;;;;;6090778;23;20049;-52
2022/05/03 02:39:09;;;;;;;2.15;0.70;;;;;;;;;;6091927;23;20666;-56
2022/05/03 02:41:45;;;;;;;1.75;0.80;;;;;;;;;;6092624;23;20058;-52
2022/05/03 02:44:12;;;;;;;0.93;0.50;;;;;;;;;;6091061;23;20089;-52
2022/05/03 02:46:57;;;;;;;1.75;0.80;;;;;;;;;;6091332;23;20049;-54
2022/05/03 02:49:45;;;;;;;1.65;0.75;;;;;;;;;;6068920;23;20030;-56
2022/05/03 02:52:30;;;;;;;2.20;0.70;;;;;;;;;;6092829;23;20026;-56
2022/05/03 02:55:07;;;;;;;0.70;0.60;;;;;;;;;;6091912;23;20479;-48
2022/05/03 02:57:47;;;;;;;2.25;0.43;;;;;;;;;;6091414;23;20093;-50
2022/05/03 03:03:31;;;;;;;2.10;0.65;;;;;;;;;;6092201;23;20046;-49
2022/05/03 03:06:04;;;;;;;6.00;0.93;;;;;;;;;;6091333;23;20451;-56
2022/05/03 03:08:41;;;;;;;1.58;0.65;;;;;;;;;;6092666;23;20254;-53
2022/05/03 03:11:16;;;;;;;3.15;0.73;;;;;;;;;;6092139;23;20024;-52
2022/05/03 03:13:46;;;;;;;1.30;0.60;;;;;;;;;;6091148;23;20037;-54
2022/05/03 03:16:13;;;;;;;0.57;0.50;;;;;;;;;;6091393;23;20795;-50
2022/05/03 03:18:52;;;;;;;3.22;0.60;;;;;;;;;;6092084;23;20065;-52
2022/05/03 03:21:23;;;;;;;1.58;1.00;;;;;;;;;;6091806;23;20555;-52
2022/05/03 03:23:57;;;;;;;2.88;0.50;;;;;;;;;;6091339;23;20027;-54
2022/05/03 03:26:26;;;;;;;2.20;0.93;;;;;;;;;;6092022;23;20060;-55
2022/05/03 03:28:54;;;;;;;0.70;0.50;;;;;;;;;;6092826;23;20026;-54
2022/05/03 03:31:28;;;;;;;1.40;0.60;;;;;;;;;;6091717;23;20757;-58
2022/05/03 03:33:56;;;;;;;1.35;0.77;;;;;;;;;;6090997;23;20026;-49
2022/05/03 03:36:22;;;;;;;1.23;0.70;;;;;;;;;;6092271;23;20058;-53
2022/05/03 03:38:56;;;;;;;2.35;0.77;;;;;;;;;;6091772;23;20106;-68
2022/05/03 03:41:23;;;;;;;1.65;0.80;;;;;;;;;;6092255;23;20125;-68
2022/05/03 03:43:49;;;;;;;1.17;0.70;;;;;;;;;;6091166;23;20022;-66
2022/05/03 03:46:23;;;;;;;3.97;0.95;;;;;;;;;;6092005;23;20093;-68
2022/05/03 03:48:49;;;;;;;2.67;0.77;;;;;;;;;;6090723;23;20031;-67
2022/05/03 03:51:15;;;;;;;2.28;0.80;;;;;;;;;;6077651;23;20057;-68
2022/05/03 03:53:49;;;;;;;1.55;0.85;;;;;;;;;;6078907;23;20061;-66
2022/05/03 03:56:16;;;;;;;1.83;1.00;;;;;;;;;;6091263;23;20495;-51
2022/05/03 03:58:42;;;;;;;1.25;0.60;;;;;;;;;;6090172;23;20061;-53
2022/05/03 04:01:16;;;;;;;1.90;0.65;;;;;;;;;;6090766;23;20062;-47
2022/05/03 04:03:43;;;;;;;1.80;0.70;;;;;;;;;;6090677;23;20098;-50
2022/05/03 04:06:09;;;;;;;1.35;0.63;;;;;;;;;;6091726;23;20034;-49
2022/05/03 04:08:43;;;;;;;4.95;0.75;;;;;;;;;;6091259;23;20101;-47
2022/05/03 04:11:16;;;;;;;0.77;0.55;;;;;;;;;;6091038;23;20480;-49
2022/05/03 04:13:43;;;;;;;2.30;0.75;;;;;;;;;;6090162;23;20033;-46
2022/05/03 04:16:17;;;;;;;3.25;0.80;;;;;;;;;;6091579;23;20097;-49
2022/05/03 04:18:46;;;;;;;1.50;0.85;;;;;;;;;;6089703;23;20057;-48
2022/05/03 04:21:16;;;;;;;1.77;0.90;;;;;;;;;;6091474;23;20420;-48
2022/05/03 04:23:50;;;;;;;1.17;0.70;;;;;;;;;;6091250;23;20022;-46
2022/05/03 04:26:16;;;;;;;2.00;0.80;;;;;;;;;;6064782;23;20052;-45
2022/05/03 04:28:56;;;;;;;1.58;0.98;;;;;;;;;;6088385;23;20050;-46
2022/05/03 04:31:31;;;;;;;0.82;0.55;;;;;;;;;;6091434;23;20072;-49
2022/05/03 04:33:57;;;;;;;3.10;0.73;;;;;;;;;;6089130;23;20022;-53
2022/05/03 04:36:25;;;;;;;2.72;1.27;;;;;;;;;;6090117;23;20060;-54
2022/05/03 04:38:58;;;;;;;4.50;1.35;;;;;;;;;;6090561;23;20026;-52
2022/05/03 04:41:24;;;;;;;1.92;0.80;;;;;;;;;;6091650;23;20401;-53
2022/05/03 04:43:51;;;;;;;2.50;0.85;;;;;;;;;;6090735;23;20507;-53
2022/05/03 04:46:24;;;;;;;5.40;0.80;;;;;;;;;;6090948;23;20109;-56
2022/05/03 04:48:50;;;;;;;2.40;1.08;;;;;;;;;;6090375;23;20030;-46
2022/05/03 04:51:20;;;;;;;3.20;1.08;;;;;;;;;;6091587;23;20106;-46
2022/05/03 04:53:54;;;;;;;1.40;0.95;;;;;;;;;;6090768;23;20054;-45
2022/05/03 04:56:21;;;;;;;2.05;1.00;;;;;;;;;;6091103;23;20115;-47
2022/05/03 04:58:49;;;;;;;2.80;0.80;;;;;;;;;;6090956;23;20057;-47
2022/05/03 05:01:22;;;;;;;3.65;0.80;;;;;;;;;;6090533;23;20062;-45
2022/05/03 05:03:49;;;;;;;2.00;0.85;;;;;;;;;;6091057;23;20032;-45
2022/05/03 05:06:15;;;;;;;3.28;1.00;;;;;;;;;;6091416;23;20046;-47
2022/05/03 05:08:49;;;;;;;1.90;0.82;;;;;;;;;;6090988;23;20053;-54
2022/05/03 05:11:15;;;;;;;2.80;0.80;;;;;;;;;;6091628;23;20103;-51
2022/05/03 05:13:41;;;;;;;2.65;0.88;;;;;;;;;;6090952;23;20049;-52
2022/05/03 05:16:15;;;;;;;4.10;0.95;;;;;;;;;;6091859;23;20105;-55
2022/05/03 05:18:41;;;;;;;1.80;1.00;;;;;;;;;;6090495;23;20030;-54
2022/05/03 05:21:08;;;;;;;3.20;1.02;;;;;;;;;;6066148;23;20046;-54
2022/05/03 05:23:41;;;;;;;5.35;1.05;;;;;;;;;;6090840;23;20026;-56
2022/05/03 05:26:07;;;;;;;3.80;0.95;;;;;;;;;;6091016;23;20027;-53
2022/05/03 05:28:33;;;;;;;5.97;1.20;;;;;;;;;;6090687;23;20065;-52
2022/05/03 05:31:13;;;;;;;3.63;0.93;;;;;;;;;;6091456;23;20030;-54
2022/05/03 05:33:40;;;;;;;3.38;1.13;;;;;;;;;;6090895;23;20463;-48
2022/05/03 05:36:06;;;;;;;4.20;1.20;;;;;;;;;;6090769;23;20076;-47
2022/05/03 05:38:40;;;;;;;2.90;0.98;;;;;;;;;;6089743;23;20062;-50
2022/05/03 05:41:12;;;;;;;3.25;0.98;;;;;;;;;;6091197;23;20058;-49
2022/05/03 05:43:39;;;;;;;3.55;1.00;;;;;;;;;;6090855;23;20484;-48
2022/05/03 05:46:13;;;;;;;2.75;1.30;;;;;;;;;;6090621;23;20093;-55
2022/05/03 05:48:39;;;;;;;3.35;1.20;;;;;;;;;;6090713;23;20022;-53
2022/05/03 05:51:06;;;;;;;2.72;1.08;;;;;;;;;;6090926;23;20061;-53
2022/05/03 05:53:39;;;;;;;4.63;0.95;;;;;;;;;;6090271;23;20441;-55
2022/05/03 05:56:07;;;;;;;4.78;1.10;;;;;;;;;;6090548;23;20054;-53
2022/05/03 05:58:33;;;;;;;4.15;0.95;;;;;;;;;;6090102;23;20396;-56
2022/05/03 06:01:07;;;;;;;3.40;1.05;;;;;;;;;;6091306;23;20053;-59
2022/05/03 06:03:34;;;;;;;4.15;1.08;;;;;;;;;;6090774;23;20421;-58
2022/05/03 06:06:01;;;;;;;3.28;0.98;;;;;;;;;;6091083;23;20029;-69
2022/05/03 06:08:34;;;;;;;2.08;1.10;;;;;;;;;;6090317;23;20033;-69
2022/05/03 06:11:01;;;;;;;2.97;1.10;;;;;;;;;;6091405;23;20054;-49
2022/05/03 06:13:27;;;;;;;5.15;0.90;;;;;;;;;;6090993;23;20045;-47
2022/05/03 06:16:10;;;;;;;3.72;1.40;;;;;;;;;;6089746;23;20057;-46
2022/05/03 06:18:37;;;;;;;1.17;0.77;;;;;;;;;;6090862;23;20022;-47
2022/05/03 06:21:10;;;;;;;3.13;1.20;;;;;;;;;;6091047;23;20072;-47
2022/05/03 06:23:36;;;;;;;1.48;1.10;;;;;;;;;;6090599;23;20054;-47
2022/05/03 06:26:06;;;;;;;3.38;1.88;;;;;;;;;;6090749;23;20053;-54
2022/05/03 06:28:50;;;;;;;3.58;0.90;;;;;;;;;;6094432;23;20031;-48
2022/05/03 06:31:24;;;;;;;6.93;1.40;;;;;;;;;;6092955;23;20027;-47
2022/05/03 06:33:57;;;;;;;3.17;0.95;;;;;;;;;;6091479;23;20022;-50
2022/05/03 06:36:23;;;;;;;3.00;1.17;;;;;;;;;;6091888;23;20037;-53
2022/05/03 06:38:49;;;;;;;3.10;1.02;;;;;;;;;;6092936;23;20027;-52
2022/05/03 06:41:23;;;;;;;3.28;1.00;;;;;;;;;;6091895;23;20255;-52
2022/05/03 06:43:49;;;;;;;5.10;1.40;;;;;;;;;;6091643;23;20069;-52
2022/05/03 06:46:16;;;;;;;5.03;1.33;;;;;;;;;;6093006;23;20046;-56
2022/05/03 06:48:50;;;;;;;3.13;0.90;;;;;;;;;;6092680;23;20077;-54
2022/05/03 06:51:16;;;;;;;1.42;0.80;;;;;;;;;;6091418;23;20049;-57
2022/05/03 06:53:42;;;;;;;1.52;0.80;;;;;;;;;;6091951;23;20056;-53
2022/05/03 06:56:16;;;;;;;4.45;1.08;;;;;;;;;;6092507;23;20061;-49
2022/05/03 06:58:43;;;;;;;2.75;0.95;;;;;;;;;;6091992;23;20027;-53
2022/05/03 07:01:10;;;;;;;2.13;0.80;;;;;;;;;;6091579;23;20158;-50
2022/05/03 07:03:43;;;;;;;4.35;1.20;;;;;;;;;;6091181;23;20030;-57
2022/05/03 07:06:09;;;;;;;2.05;0.77;;;;;;;;;;6067035;23;20057;-56
2022/05/03 07:08:36;;;;;;;1.15;0.63;;;;;;;;;;6091598;23;20034;-58
2022/05/03 07:11:09;;;;;;;2.13;0.98;;;;;;;;;;6092093;23;20065;-54
2022/05/03 07:13:35;;;;;;;3.60;0.90;;;;;;;;;;6092370;23;20058;-56
2022/05/03 07:16:01;;;;;;;3.60;0.95;;;;;;;;;;6091934;23;20041;-56
2022/05/03 07:24:35;;;;;;;3.05;1.10;;;;;;;;;;6092219;23;20074;-50
2022/05/03 07:27:02;;;;;;;3.50;0.95;;;;;;;;;;6091979;23;20506;-49
2022/05/03 07:29:28;;;;;;;2.50;0.98;;;;;;;;;;6093980;23;20456;-49
2022/05/03 07:32:01;;;;;;;2.55;0.98;;;;;;;;;;6092298;23;20029;-49
2022/05/03 07:34:27;;;;;;;2.95;0.88;;;;;;;;;;6092218;23;20026;-53
2022/05/03 07:36:55;;;;;;;2.97;0.77;;;;;;;;;;6066437;23;20041;-49
2022/05/03 07:39:28;;;;;;;2.00;0.90;;;;;;;;;;6091360;23;20738;-52
2022/05/03 07:41:55;;;;;;;3.88;0.98;;;;;;;;;;6090651;23;20022;-56
2022/05/03 07:44:21;;;;;;;1.92;0.95;;;;;;;;;;6091042;23;20065;-48
2022/05/03 07:46:55;;;;;;;3.17;0.95;;;;;;;;;;6091304;23;20054;-46
2022/05/03 07:49:21;;;;;;;2.43;0.87;;;;;;;;;;6092397;23;20061;-47
2022/05/03 07:51:48;;;;;;;2.00;0.80;;;;;;;;;;6091284;23;20061;-49
2022/05/03 07:54:21;;;;;;;3.97;0.98;;;;;;;;;;6091274;23;20053;-49
2022/05/03 07:56:52;;;;;;;3.85;1.10;;;;;;;;;;6091566;23;20026;-46
2022/05/03 07:59:18;;;;;;;4.50;0.90;;;;;;;;;;6091371;23;20026;-68
2022/05/03 08:01:54;;;;;;;3.38;1.05;;;;;;;;;;6091253;23;20057;-58
2022/05/03 08:04:21;;;;;;;2.38;0.60;;;;;;;;;;6091230;23;20058;-50
2022/05/03 08:06:47;;;;;;;2.20;0.82;;;;;;;;;;6091398;23;20053;-52
2022/05/03 08:09:21;;;;;;;0.88;0.50;;;;;;;;;;6091516;23;20029;-52
2022/05/03 08:11:47;;;;;;;5.07;1.23;;;;;;;;;;6090886;23;20057;-49
2022/05/03 08:14:14;;;;;;;2.40;0.77;;;;;;;;;;6091373;23;20069;-48
2022/05/03 08:16:47;;;;;;;4.05;0.93;;;;;;;;;;6091652;23;20022;-53
2022/05/03 08:19:13;;;;;;;1.23;0.68;;;;;;;;;;6091956;23;20036;-46
2022/05/03 08:21:39;;;;;;;1.80;0.82;;;;;;;;;;6090384;23;20022;-69
2022/05/03 08:24:13;;;;;;;2.65;0.88;;;;;;;;;;6090849;23;20359;-49
2022/05/03 08:26:39;;;;;;;3.97;0.93;;;;;;;;;;6091777;23;20100;-54
2022/05/03 08:29:05;;;;;;;2.28;0.90;;;;;;;;;;6091216;23;20064;-49
2022/05/03 08:31:45;;;;;;;2.47;0.85;;;;;;;;;;6090635;23;20057;-52
2022/05/03 08:34:13;;;;;;;2.22;1.23;;;;;;;;;;6091369;23;20022;-50
2022/05/03 08:42:01;;;;;;;3.55;0.98;;;;;;;;;;6091355;23;20054;-50
2022/05/03 08:42:24;;;;;;;3.92;1.45;;;;;;;;;;6090251;23;20058;-59
2022/05/03 08:44:50;;;;;;;2.92;0.95;;;;;;;;;;6091261;23;20065;-57
2022/05/03 08:47:20;;;;;;;4.53;1.00;;;;;;;;;;6091849;23;20026;-58
2022/05/03 08:50:07;;;;;;;5.07;1.10;;;;;;;;;;6090300;23;20065;-59
2022/05/03 08:52:46;;;;;;;1.10;0.73;;;;;;;;;;6091109;23;20073;-59
2022/05/03 08:55:20;;;;;;;3.78;0.82;;;;;;;;;;6090849;23;20352;-57
2022/05/03 08:57:46;;;;;;;2.63;1.20;;;;;;;;;;6091557;23;20033;-61
2022/05/03 09:00:13;;;;;;;2.38;0.98;;;;;;;;;;6090167;23;20069;-49
2022/05/03 09:02:48;;;;;;;2.17;0.88;;;;;;;;;;6091334;23;20018;-51
2022/05/03 09:05:15;;;;;;;2.35;1.05;;;;;;;;;;6090947;23;20030;-52
2022/05/03 09:07:55;;;;;;;4.25;1.13;;;;;;;;;;6091801;23;20053;-53
2022/05/03 09:10:29;;;;;;;2.53;1.02;;;;;;;;;;6090220;23;20033;-54
2022/05/03 09:13:12;;;;;;;3.13;0.82;;;;;;;;;;6090481;23;20521;-56
2022/05/03 09:15:46;;;;;;;3.17;1.20;;;;;;;;;;6089697;23;20027;-47
2022/05/03 09:18:22;;;;;;;2.50;1.10;;;;;;;;;;6091465;23;20065;-53
2022/05/03 09:23:51;;;;;;;2.17;1.15;;;;;;;;;;6090334;23;20161;-47
2022/05/03 09:26:25;;;;;;;3.03;1.17;;;;;;;;;;6090730;23;20023;-47
2022/05/03 09:29:07;;;;;;;2.17;0.90;;;;;;;;;;6091041;23;20026;-46
2022/05/03 09:31:48;;;;;;;5.05;1.10;;;;;;;;;;6091271;23;20026;-47
2022/05/03 09:34:25;;;;;;;1.40;0.82;;;;;;;;;;6090743;23;20050;-46
2022/05/03 09:37:00;;;;;;;2.28;0.80;;;;;;;;;;6090722;23;20431;-58
2022/05/03 09:39:37;;;;;;;2.30;1.15;;;;;;;;;;6089757;23;20572;-45
2022/05/03 09:42:15;;;;;;;3.45;1.00;;;;;;;;;;6091447;23;20038;-46
2022/05/03 09:44:55;;;;;;;2.15;0.80;;;;;;;;;;6090495;23;20104;-46
2022/05/03 09:47:29;;;;;;;2.05;0.82;;;;;;;;;;6091649;23;20061;-48
2022/05/03 09:49:56;;;;;;;1.25;0.90;;;;;;;;;;6089989;23;20132;-46
2022/05/03 09:52:31;;;;;;;2.38;0.93;;;;;;;;;;6091979;23;20026;-46
2022/05/03 09:55:06;;;;;;;1.60;0.70;;;;;;;;;;6090759;23;20097;-48
2022/05/03 09:57:40;;;;;;;1.65;0.90;;;;;;;;;;6091409;23;20030;-52
2022/05/03 10:00:21;;;;;;;1.58;0.65;;;;;;;;;;6090589;23;20030;-58
2022/05/03 10:02:48;;;;;;;0.95;0.57;;;;;;;;;;6092669;23;20640;-60
2022/05/03 10:05:22;;;;;;;3.38;0.68;;;;;;;;;;6093242;23;20026;-59
2022/05/03 10:07:49;;;;;;;3.05;0.82;;;;;;;;;;6092506;23;20077;-58
2022/05/03 10:10:16;;;;;;;4.13;1.17;;;;;;;;;;6092127;23;20056;-55
2022/05/03 10:12:50;;;;;;;2.45;0.93;;;;;;;;;;6091912;23;20030;-46
2022/05/03 10:21:14;;;;;;;2.65;0.70;;;;;;;;;;6092754;23;20033;-46
2022/05/03 10:24:05;;;;;;;1.60;0.60;;;;;;;;;;6091802;23;20447;-50
2022/05/03 10:26:50;;;;;;;3.22;1.00;;;;;;;;;;6091995;23;20030;-47
2022/05/03 10:29:35;;;;;;;2.30;0.80;;;;;;;;;;6092695;23;20042;-46
2022/05/03 10:32:04;;;;;;;4.38;0.90;;;;;;;;;;6092642;23;20097;-48
2022/05/03 10:34:41;;;;;;;2.45;0.80;;;;;;;;;;6092568;23;20019;-59
2022/05/03 10:37:08;;;;;;;3.55;1.08;;;;;;;;;;6091195;23;20821;-58
2022/05/03 10:39:43;;;;;;;2.25;0.75;;;;;;;;;;6092308;23;20074;-55
2022/05/03 10:42:16;;;;;;;3.40;0.80;;;;;;;;;;6092415;23;20026;-56
2022/05/03 10:44:44;;;;;;;5.18;0.90;;;;;;;;;;6092048;23;20022;-57
2022/05/03 10:47:11;;;;;;;1.30;0.80;;;;;;;;;;6092386;23;20062;-52
2022/05/03 10:50:03;;;;;;;1.10;0.47;;;;;;;;;;6092795;23;20061;-56
2022/05/03 10:52:30;;;;;;;1.90;0.60;;;;;;;;;;6092104;23;20053;-60
2022/05/03 10:55:04;;;;;;;1.35;0.52;;;;;;;;;;6091869;23;20026;-61
2022/05/03 10:57:31;;;;;;;1.50;0.68;;;;;;;;;;6092646;23;20058;-61
2022/05/03 10:59:57;;;;;;;0.85;0.50;;;;;;;;;;6092159;23;20030;-61
2022/05/03 11:02:31;;;;;;;0.35;0.35;;;;;;;;;;6092484;23;20097;-60
2022/05/03 11:05:16;;;;;;;1.58;0.52;;;;;;;;;;6091445;23;20506;-61
2022/05/03 11:08:08;;;;;;;5.68;0.77;;;;;;;;;;6092340;23;20054;-60
2022/05/03 11:10:39;;;;;;;3.97;0.80;;;;;;;;;;6091103;23;20062;-45
2022/05/03 11:13:31;;;;;;;0.50;0.50;;;;;;;;;;6092211;23;20018;-48
2022/05/03 11:16:24;;;;;;;1.88;0.65;;;;;;;;;;6092017;23;20054;-46
2022/05/03 11:18:58;;;;;;;2.72;0.52;;;;;;;;;;6092432;23;20081;-49
2022/05/03 11:21:24;;;;;;;1.10;0.60;;;;;;;;;;6092122;23;20030;-50
2022/05/03 11:23:52;;;;;;;2.38;0.63;;;;;;;;;;6091998;23;20057;-48
2022/05/03 11:26:25;;;;;;;1.00;0.50;;;;;;;;;;6091038;23;20023;-47
2022/05/03 11:28:52;;;;;;;1.23;0.43;;;;;;;;;;6092105;23;20049;-47
2022/05/03 11:31:29;;;;;;;1.05;0.47;;;;;;;;;;6091132;23;20049;-58
2022/05/03 11:34:03;;;;;;;1.42;0.73;;;;;;;;;;6092054;23;20022;-48
2022/05/03 11:36:30;;;;;;;1.88;0.68;;;;;;;;;;6092033;23;20055;-47
2022/05/03 11:38:56;;;;;;;0.80;0.53;;;;;;;;;;6091390;23;20022;-51
2022/05/03 11:41:30;;;;;;;1.23;0.57;;;;;;;;;;6091904;23;20096;-49
2022/05/03 11:43:56;;;;;;;2.10;0.57;;;;;;;;;;6091763;23;20057;-47
2022/05/03 11:46:23;;;;;;;2.47;0.40;;;;;;;;;;6090064;23;20058;-49
2022/05/03 11:49:02;;;;;;;4.68;0.40;;;;;;;;;;6090759;23;20026;-57
2022/05/03 11:57:16;;;;;;;3.13;0.70;;;;;;;;;;6091549;23;20061;-70
2022/05/03 11:59:55;;;;;;;1.70;0.60;;;;;;;;;;6091983;23;20060;-68
2022/05/03 12:02:24;;;;;;;0.55;0.43;;;;;;;;;;6091216;23;20566;-70
2022/05/03 12:05:04;;;;;;;0.52;0.50;;;;;;;;;;6091884;23;20093;-70
2022/05/03 12:07:36;;;;;;;0.98;0.50;;;;;;;;;;6091401;23;20058;-60
2022/05/03 12:10:16;;;;;;;1.77;0.50;;;;;;;;;;6091455;23;20484;-46
2022/05/03 12:12:43;;;;;;;2.10;0.50;;;;;;;;;;6091581;23;20148;-70
2022/05/03 12:15:12;;;;;;;0.38;0.30;;;;;;;;;;6091644;23;20534;-68
2022/05/03 12:17:55;;;;;;;2.42;0.57;;;;;;;;;;6090956;23;20053;-69
2022/05/03 12:20:22;;;;;;;3.60;0.55;;;;;;;;;;6091825;23;20026;-69
2022/05/03 12:23:11;;;;;;;1.10;0.43;;;;;;;;;;6091341;23;20029;-69
2022/05/03 12:25:37;;;;;;;0.98;0.40;;;;;;;;;;6091091;23;20061;-70
2022/05/03 12:28:11;;;;;;;3.10;0.60;;;;;;;;;;6091185;23;20495;-48
2022/05/03 12:30:44;;;;;;;2.05;0.70;;;;;;;;;;6090632;23;20054;-47
2022/05/03 12:33:14;;;;;;;2.47;0.50;;;;;;;;;;6091773;23;20117;-48
2022/05/03 12:35:48;;;;;;;1.25;0.55;;;;;;;;;;6090099;23;20054;-46
2022/05/03 12:38:15;;;;;;;1.15;0.50;;;;;;;;;;6091591;23;20345;-47
2022/05/03 12:40:48;;;;;;;0.65;0.40;;;;;;;;;;6091570;23;20057;-46
2022/05/03 12:43:23;;;;;;;1.13;0.70;;;;;;;;;;6091333;23;20130;-47
2022/05/03 12:46:02;;;;;;;2.42;0.77;;;;;;;;;;6090779;23;20030;-59
2022/05/03 12:48:36;;;;;;;1.75;0.60;;;;;;;;;;6091619;23;20030;-57
2022/05/03 12:51:03;;;;;;;1.30;0.60;;;;;;;;;;6091336;23;20543;-46
2022/05/03 12:53:31;;;;;;;2.25;0.50;;;;;;;;;;6091185;23;20030;-47
2022/05/03 12:58:49;;;;;;;2.67;0.40;;;;;;;;;;6090834;23;20064;-47
2022/05/03 13:01:22;;;;;;;1.00;0.43;;;;;;;;;;6091743;23;20029;-49
2022/05/03 13:03:49;;;;;;;2.08;0.55;;;;;;;;;;6091350;23;20669;-46
2022/05/03 13:06:21;;;;;;;1.52;0.70;;;;;;;;;;6090200;23;20072;-60
2022/05/03 13:08:54;;;;;;;1.58;0.60;;;;;;;;;;6090682;23;20471;-60
2022/05/03 13:11:20;;;;;;;3.47;0.70;;;;;;;;;;6090746;23;20062;-59
2022/05/03 13:13:48;;;;;;;1.02;0.50;;;;;;;;;;6091429;23;20126;-59
2022/05/03 13:16:21;;;;;;;1.65;0.75;;;;;;;;;;6090287;23;20045;-56
2022/05/03 13:18:47;;;;;;;0.60;0.32;;;;;;;;;;6091388;23;20499;-58
2022/05/03 13:21:35;;;;;;;3.03;0.70;;;;;;;;;;6091255;23;20040;-56
2022/05/03 13:24:10;;;;;;;0.82;0.60;;;;;;;;;;6090983;23;20116;-48
2022/05/03 13:26:37;;;;;;;1.00;0.52;;;;;;;;;;6090662;23;20065;-69
2022/05/03 13:29:05;;;;;;;2.22;0.70;;;;;;;;;;6090958;23;20073;-67
2022/05/03 13:31:45;;;;;;;1.42;0.60;;;;;;;;;;6061411;23;20066;-68
2022/05/03 13:34:12;;;;;;;1.17;0.70;;;;;;;;;;6061920;23;20464;-65
2022/05/03 13:42:23;;;;;;;0.68;0.43;;;;;;;;;;6061940;23;20026;-53
2022/05/03 13:44:49;;;;;;;3.63;0.60;;;;;;;;;;6062087;23;20058;-58
2022/05/03 13:47:16;;;;;;;2.13;0.57;;;;;;;;;;6062276;23;20082;-56
2022/05/03 13:49:50;;;;;;;1.40;0.80;;;;;;;;;;6062322;23;20062;-57
2022/05/03 13:52:18;;;;;;;1.52;0.68;;;;;;;;;;6061935;23;20037;-56
2022/05/03 13:54:44;;;;;;;1.73;0.40;;;;;;;;;;6062205;23;20026;-57
2022/05/03 13:57:17;;;;;;;5.28;0.82;;;;;;;;;;6062278;23;20023;-55
2022/05/03 13:59:43;;;;;;;3.30;0.70;;;;;;;;;;6061477;23;20427;-59
2022/05/03 14:02:10;;;;;;;0.90;0.50;;;;;;;;;;6061721;23;20081;-59
2022/05/03 14:04:43;;;;;;;2.63;0.50;;;;;;;;;;6062165;23;20101;-48
2022/05/03 14:07:09;;;;;;;2.50;0.70;;;;;;;;;;6061622;23;20054;-58
2022/05/03 14:09:36;;;;;;;3.30;0.80;;;;;;;;;;6062356;23;20102;-56
2022/05/03 14:12:10;;;;;;;1.58;0.65;;;;;;;;;;6061384;23;20058;-59
2022/05/03 14:14:37;;;;;;;1.47;0.40;;;;;;;;;;6061824;23;20058;-58
2022/05/03 14:17:04;;;;;;;1.43;0.40;;;;;;;;;;6060650;23;20094;-58
2022/05/03 14:19:39;;;;;;;3.35;0.82;;;;;;;;;;6061561;23;20031;-57
2022/05/03 14:22:05;;;;;;;1.85;0.60;;;;;;;;;;6060371;23;20304;-54
2022/05/03 14:24:32;;;;;;;2.15;0.73;;;;;;;;;;6061026;23;20093;-50
2022/05/03 14:27:05;;;;;;;2.30;0.50;;;;;;;;;;6061563;23;20054;-54
2022/05/03 14:29:45;;;;;;;1.75;0.90;;;;;;;;;;6038028;23;20061;-52
2022/05/03 14:32:19;;;;;;;1.05;0.52;;;;;;;;;;6089513;23;20023;-47
2022/05/03 14:34:46;;;;;;;1.95;0.75;;;;;;;;;;6090005;23;20058;-47
2022/05/03 14:37:12;;;;;;;1.60;0.73;;;;;;;;;;6089908;23;20085;-47
2022/05/03 14:39:45;;;;;;;4.07;0.60;;;;;;;;;;6090262;23;20058;-47
2022/05/03 14:42:19;;;;;;;1.45;0.65;;;;;;;;;;6089459;23;20034;-46
2022/05/03 14:44:53;;;;;;;0.95;0.47;;;;;;;;;;6090091;23;20049;-58
2022/05/03 14:47:20;;;;;;;4.68;0.70;;;;;;;;;;6064979;23;20598;-54
2022/05/03 14:49:46;;;;;;;3.42;0.57;;;;;;;;;;6091889;23;20030;-53
2022/05/03 14:52:21;;;;;;;3.28;0.60;;;;;;;;;;6091612;23;20426;-56
2022/05/03 14:54:48;;;;;;;1.23;0.60;;;;;;;;;;6089399;23;20041;-56
2022/05/03 15:02:54;;;;;;;1.30;0.50;;;;;;;;;;6090979;23;20516;-45
2022/05/03 15:05:31;;;;;;;1.13;0.50;;;;;;;;;;6091256;23;20512;-45
2022/05/03 15:07:59;;;;;;;0.93;0.45;;;;;;;;;;6091086;23;20033;-48
2022/05/03 15:10:30;;;;;;;1.15;0.68;;;;;;;;;;6092300;23;20506;-49
2022/05/03 15:13:04;;;;;;;4.68;0.90;;;;;;;;;;6090902;23;20070;-48
2022/05/03 15:15:31;;;;;;;5.13;0.73;;;;;;;;;;6091753;23;20061;-48
2022/05/03 15:17:57;;;;;;;2.15;0.52;;;;;;;;;;6092149;23;20027;-48
2022/05/03 15:20:32;;;;;;;1.77;0.50;;;;;;;;;;6091680;23;20503;-46
2022/05/03 15:25:53;;;;;;;3.97;0.70;;;;;;;;;;6090609;23;20026;-48
2022/05/03 15:28:26;;;;;;;1.73;0.80;;;;;;;;;;6091530;23;20476;-46
2022/05/03 15:30:53;;;;;;;2.30;0.73;;;;;;;;;;6090534;23;20030;-47
2022/05/03 15:33:28;;;;;;;1.15;0.50;;;;;;;;;;6090741;23;20033;-46
2022/05/03 15:35:54;;;;;;;;;;;;;;;;;;6090961;23;20022;-49
2022/05/03 15:38:21;;;;;;;1.65;0.70;;;;;;;;;;6091311;23;19988;-44
2022/05/03 15:40:55;;;;;;;3.50;0.80;;;;;;;;;;6091360;23;20429;-50
2022/05/03 15:43:22;;;;;;;0.85;0.45;;;;;;;;;;6091462;23;20094;-48
2022/05/03 15:45:48;;;;;;;2.20;0.65;;;;;;;;;;6090443;23;20098;-51
2022/05/03 15:48:22;;;;;;;2.00;0.80;;;;;;;;;;6088757;23;20078;-47
2022/05/03 15:50:48;;;;;;;1.65;0.70;;;;;;;;;;6089385;23;20026;-50
2022/05/03 15:53:20;;;;;;;2.72;0.57;;;;;;;;;;6087448;23;20101;-52
2022/05/03 15:55:55;;;;;;;0.80;0.70;;;;;;;;;;6088520;23;20026;-46
2022/05/03 15:58:26;;;;;;;3.65;0.70;;;;;;;;;;6090330;23;20061;-47
2022/05/03 16:00:56;;;;;;;1.02;0.50;;;;;;;;;;6091078;23;20105;-55